sensor_id;sensor_type;location;lat;lon;timestamp;temperature;humidity
27540;DHT22;15906;52.046;4.724;2023-10-08T00:00:47;17.70;99.90
27540;DHT22;15906;52.046;4.724;2023-10-08T00:03:19;17.80;99.90
27540;DHT22;15906;52.046;4.724;2023-10-08T00:05:52;17.80;99.90
27540;DHT22;15906;52.046;4.724;2023-10-08T00:08:18;17.80;99.90
27540;DHT22;15906;52.046;4.724;2023-10-08T00:10:44;17.80;99.90
27540;DHT22;15906;52.046;4.724;2023-10-08T00:13:11;17.80;99.90
27540;DHT22;15906;52.046;4.724;2023-10-08T00:15:42;17.80;99.90
27540;DHT22;15906;52.046;4.724;2023-10-08T00:18:19;17.80;99.90
27540;DHT22;15906;52.046;4.724;2023-10-08T00:20:44;17.80;99.90
27540;DHT22;15906;52.046;4.724;2023-10-08T00:23:20;17.80;99.90
27540;DHT22;15906;52.046;4.724;2023-10-08T00:25:46;17.70;99.90
27540;DHT22;15906;52.046;4.724;2023-10-08T00:28:13;17.70;99.90
27540;DHT22;15906;52.046;4.724;2023-10-08T00:30:42;17.70;99.90
27540;DHT22;15906;52.046;4.724;2023-10-08T00:33:10;17.70;99.90
27540;DHT22;15906;52.046;4.724;2023-10-08T00:35:39;17.70;99.90
27540;DHT22;15906;52.046;4.724;2023-10-08T00:38:07;17.80;99.90
27540;DHT22;15906;52.046;4.724;2023-10-08T00:40:40;17.80;99.90
27540;DHT22;15906;52.046;4.724;2023-10-08T00:43:07;17.80;99.90
27540;DHT22;15906;52.046;4.724;2023-10-08T00:45:36;17.80;99.90
27540;DHT22;15906;52.046;4.724;2023-10-08T00:48:08;17.80;99.90
27540;DHT22;15906;52.046;4.724;2023-10-08T00:50:35;17.80;99.90
27540;DHT22;15906;52.046;4.724;2023-10-08T00:53:09;17.80;99.90
27540;DHT22;15906;52.046;4.724;2023-10-08T00:55:42;17.90;99.90
27540;DHT22;15906;52.046;4.724;2023-10-08T00:58:15;17.80;99.90
27540;DHT22;15906;52.046;4.724;2023-10-08T01:00:51;17.70;99.90
27540;DHT22;15906;52.046;4.724;2023-10-08T01:03:18;17.70;99.90
27540;DHT22;15906;52.046;4.724;2023-10-08T01:05:45;17.70;99.90
27540;DHT22;15906;52.046;4.724;2023-10-08T01:08:14;17.70;99.90
27540;DHT22;15906;52.046;4.724;2023-10-08T01:10:44;17.70;99.90
27540;DHT22;15906;52.046;4.724;2023-10-08T01:13:13;17.80;99.90
27540;DHT22;15906;52.046;4.724;2023-10-08T01:15:46;17.70;99.90
27540;DHT22;15906;52.046;4.724;2023-10-08T01:18:17;17.70;99.90
27540;DHT22;15906;52.046;4.724;2023-10-08T01:20:54;17.70;99.90
27540;DHT22;15906;52.046;4.724;2023-10-08T01:23:21;17.70;99.90
27540;DHT22;15906;52.046;4.724;2023-10-08T01:25:48;17.60;99.90
27540;DHT22;15906;52.046;4.724;2023-10-08T01:28:16;17.60;99.90
27540;DHT22;15906;52.046;4.724;2023-10-08T01:30:56;17.60;99.90
27540;DHT22;15906;52.046;4.724;2023-10-08T01:33:25;17.60;99.90
27540;DHT22;15906;52.046;4.724;2023-10-08T01:35:54;17.50;99.90
27540;DHT22;15906;52.046;4.724;2023-10-08T01:38:20;17.50;99.90
27540;DHT22;15906;52.046;4.724;2023-10-08T01:40:51;17.50;99.90
27540;DHT22;15906;52.046;4.724;2023-10-08T01:43:17;17.60;99.90
27540;DHT22;15906;52.046;4.724;2023-10-08T01:45:44;17.50;99.90
27540;DHT22;15906;52.046;4.724;2023-10-08T01:48:14;17.50;99.90
27540;DHT22;15906;52.046;4.724;2023-10-08T01:50:59;17.50;99.90
27540;DHT22;15906;52.046;4.724;2023-10-08T01:53:27;17.60;99.90
27540;DHT22;15906;52.046;4.724;2023-10-08T01:55:53;17.50;99.90
27540;DHT22;15906;52.046;4.724;2023-10-08T01:58:19;17.50;99.90
27540;DHT22;15906;52.046;4.724;2023-10-08T02:00:46;17.50;99.90
27540;DHT22;15906;52.046;4.724;2023-10-08T02:03:13;17.50;99.90
27540;DHT22;15906;52.046;4.724;2023-10-08T02:05:41;17.50;99.90
27540;DHT22;15906;52.046;4.724;2023-10-08T02:08:08;17.60;99.90
27540;DHT22;15906;52.046;4.724;2023-10-08T02:10:34;17.50;99.90
27540;DHT22;15906;52.046;4.724;2023-10-08T02:13:01;17.50;99.90
27540;DHT22;15906;52.046;4.724;2023-10-08T02:15:27;17.60;99.90
27540;DHT22;15906;52.046;4.724;2023-10-08T02:17:53;17.60;99.90
27540;DHT22;15906;52.046;4.724;2023-10-08T02:20:20;17.60;99.90
27540;DHT22;15906;52.046;4.724;2023-10-08T02:22:47;17.60;99.90
27540;DHT22;15906;52.046;4.724;2023-10-08T02:25:14;17.60;99.90
27540;DHT22;15906;52.046;4.724;2023-10-08T02:27:40;17.60;99.90
27540;DHT22;15906;52.046;4.724;2023-10-08T02:30:07;17.60;99.90
27540;DHT22;15906;52.046;4.724;2023-10-08T02:32:34;17.50;99.90
27540;DHT22;15906;52.046;4.724;2023-10-08T02:35:02;17.50;99.90
27540;DHT22;15906;52.046;4.724;2023-10-08T02:37:28;17.50;99.90
27540;DHT22;15906;52.046;4.724;2023-10-08T02:39:53;17.50;99.90
27540;DHT22;15906;52.046;4.724;2023-10-08T02:42:20;17.50;99.90
27540;DHT22;15906;52.046;4.724;2023-10-08T02:44:47;17.50;99.90
27540;DHT22;15906;52.046;4.724;2023-10-08T02:47:13;17.50;99.90
27540;DHT22;15906;52.046;4.724;2023-10-08T02:49:46;17.50;99.90
27540;DHT22;15906;52.046;4.724;2023-10-08T02:52:14;17.50;99.90
27540;DHT22;15906;52.046;4.724;2023-10-08T02:54:41;17.50;99.90
27540;DHT22;15906;52.046;4.724;2023-10-08T02:57:07;17.50;99.90
27540;DHT22;15906;52.046;4.724;2023-10-08T02:59:40;17.50;99.90
27540;DHT22;15906;52.046;4.724;2023-10-08T03:02:10;17.40;99.90
27540;DHT22;15906;52.046;4.724;2023-10-08T03:04:41;17.40;99.90
27540;DHT22;15906;52.046;4.724;2023-10-08T03:07:07;17.40;99.90
27540;DHT22;15906;52.046;4.724;2023-10-08T03:09:37;17.40;99.90
27540;DHT22;15906;52.046;4.724;2023-10-08T03:12:07;17.40;99.90
27540;DHT22;15906;52.046;4.724;2023-10-08T03:14:35;17.40;99.90
27540;DHT22;15906;52.046;4.724;2023-10-08T03:17:13;17.40;99.90
27540;DHT22;15906;52.046;4.724;2023-10-08T03:19:45;17.30;99.90
27540;DHT22;15906;52.046;4.724;2023-10-08T03:22:11;17.30;99.90
27540;DHT22;15906;52.046;4.724;2023-10-08T03:24:37;17.30;99.90
27540;DHT22;15906;52.046;4.724;2023-10-08T03:27:05;17.30;99.90
27540;DHT22;15906;52.046;4.724;2023-10-08T03:29:46;17.30;99.90
27540;DHT22;15906;52.046;4.724;2023-10-08T03:32:13;17.20;99.90
27540;DHT22;15906;52.046;4.724;2023-10-08T03:34:48;17.20;99.90
27540;DHT22;15906;52.046;4.724;2023-10-08T03:37:18;17.20;99.90
27540;DHT22;15906;52.046;4.724;2023-10-08T03:39:54;17.20;99.90
27540;DHT22;15906;52.046;4.724;2023-10-08T03:42:40;17.20;99.90
27540;DHT22;15906;52.046;4.724;2023-10-08T03:45:07;17.20;99.90
27540;DHT22;15906;52.046;4.724;2023-10-08T03:47:38;17.20;99.90
27540;DHT22;15906;52.046;4.724;2023-10-08T03:50:07;17.10;99.90
27540;DHT22;15906;52.046;4.724;2023-10-08T03:52:35;17.10;99.90
27540;DHT22;15906;52.046;4.724;2023-10-08T03:55:05;17.10;99.90
27540;DHT22;15906;52.046;4.724;2023-10-08T03:57:45;17.10;99.90
27540;DHT22;15906;52.046;4.724;2023-10-08T04:00:14;17.10;99.90
27540;DHT22;15906;52.046;4.724;2023-10-08T04:02:45;17.10;99.90
27540;DHT22;15906;52.046;4.724;2023-10-08T04:05:23;17.10;99.90
27540;DHT22;15906;52.046;4.724;2023-10-08T04:07:53;17.00;99.90
27540;DHT22;15906;52.046;4.724;2023-10-08T04:10:26;17.00;99.90
27540;DHT22;15906;52.046;4.724;2023-10-08T04:13:24;17.00;99.90
27540;DHT22;15906;52.046;4.724;2023-10-08T04:15:50;17.00;99.90
27540;DHT22;15906;52.046;4.724;2023-10-08T04:18:15;17.00;99.90
27540;DHT22;15906;52.046;4.724;2023-10-08T04:20:41;17.00;99.90
27540;DHT22;15906;52.046;4.724;2023-10-08T04:23:25;17.00;99.90
27540;DHT22;15906;52.046;4.724;2023-10-08T04:25:51;17.00;99.90
27540;DHT22;15906;52.046;4.724;2023-10-08T04:28:20;17.00;99.90
27540;DHT22;15906;52.046;4.724;2023-10-08T04:30:46;16.90;99.90
27540;DHT22;15906;52.046;4.724;2023-10-08T04:33:18;16.90;99.90
27540;DHT22;15906;52.046;4.724;2023-10-08T04:35:45;17.00;99.90
27540;DHT22;15906;52.046;4.724;2023-10-08T04:38:19;17.00;99.90
27540;DHT22;15906;52.046;4.724;2023-10-08T04:40:50;17.00;99.90
27540;DHT22;15906;52.046;4.724;2023-10-08T04:43:20;17.00;99.90
27540;DHT22;15906;52.046;4.724;2023-10-08T04:45:57;17.00;99.90
27540;DHT22;15906;52.046;4.724;2023-10-08T04:48:26;17.10;99.90
27540;DHT22;15906;52.046;4.724;2023-10-08T04:50:55;17.00;99.90
27540;DHT22;15906;52.046;4.724;2023-10-08T04:53:33;16.90;99.90
27540;DHT22;15906;52.046;4.724;2023-10-08T04:56:04;16.90;99.90
27540;DHT22;15906;52.046;4.724;2023-10-08T04:58:39;16.80;99.90
27540;DHT22;15906;52.046;4.724;2023-10-08T05:01:06;16.70;99.90
27540;DHT22;15906;52.046;4.724;2023-10-08T05:03:53;16.50;99.90
27540;DHT22;15906;52.046;4.724;2023-10-08T05:06:23;16.50;99.90
27540;DHT22;15906;52.046;4.724;2023-10-08T05:09:05;16.50;99.90
27540;DHT22;15906;52.046;4.724;2023-10-08T05:11:43;16.40;99.90
27540;DHT22;15906;52.046;4.724;2023-10-08T05:14:23;16.50;99.90
27540;DHT22;15906;52.046;4.724;2023-10-08T05:17:02;16.40;99.90
27540;DHT22;15906;52.046;4.724;2023-10-08T05:19:45;16.40;99.90
27540;DHT22;15906;52.046;4.724;2023-10-08T05:22:42;16.30;99.90
27540;DHT22;15906;52.046;4.724;2023-10-08T05:25:20;16.20;99.90
27540;DHT22;15906;52.046;4.724;2023-10-08T05:27:46;16.20;99.90
27540;DHT22;15906;52.046;4.724;2023-10-08T05:30:27;16.10;99.90
27540;DHT22;15906;52.046;4.724;2023-10-08T05:32:53;16.10;99.90
27540;DHT22;15906;52.046;4.724;2023-10-08T05:35:39;16.20;99.90
27540;DHT22;15906;52.046;4.724;2023-10-08T05:38:14;16.10;99.90
27540;DHT22;15906;52.046;4.724;2023-10-08T05:40:56;16.10;99.90
27540;DHT22;15906;52.046;4.724;2023-10-08T05:43:34;16.10;99.90
27540;DHT22;15906;52.046;4.724;2023-10-08T05:46:03;16.00;99.90
27540;DHT22;15906;52.046;4.724;2023-10-08T05:49:04;16.10;99.90
27540;DHT22;15906;52.046;4.724;2023-10-08T05:51:34;16.10;99.90
27540;DHT22;15906;52.046;4.724;2023-10-08T05:54:23;16.10;99.90
27540;DHT22;15906;52.046;4.724;2023-10-08T05:56:56;16.00;99.90
27540;DHT22;15906;52.046;4.724;2023-10-08T05:59:43;16.10;99.90
27540;DHT22;15906;52.046;4.724;2023-10-08T06:02:24;16.10;99.90
27540;DHT22;15906;52.046;4.724;2023-10-08T06:04:54;16.10;99.90
27540;DHT22;15906;52.046;4.724;2023-10-08T06:07:41;16.10;99.90
27540;DHT22;15906;52.046;4.724;2023-10-08T06:10:26;16.10;99.90
27540;DHT22;15906;52.046;4.724;2023-10-08T06:13:10;16.10;99.90
27540;DHT22;15906;52.046;4.724;2023-10-08T06:15:42;16.00;99.90
27540;DHT22;15906;52.046;4.724;2023-10-08T06:18:18;16.10;99.90
27540;DHT22;15906;52.046;4.724;2023-10-08T06:20:45;16.00;99.90
27540;DHT22;15906;52.046;4.724;2023-10-08T06:23:17;16.00;99.90
27540;DHT22;15906;52.046;4.724;2023-10-08T06:25:44;16.00;99.90
27540;DHT22;15906;52.046;4.724;2023-10-08T06:28:17;16.00;99.90
27540;DHT22;15906;52.046;4.724;2023-10-08T06:30:50;15.90;99.90
27540;DHT22;15906;52.046;4.724;2023-10-08T06:33:19;15.90;99.90
27540;DHT22;15906;52.046;4.724;2023-10-08T06:35:46;15.80;99.90
27540;DHT22;15906;52.046;4.724;2023-10-08T06:38:22;15.70;99.90
27540;DHT22;15906;52.046;4.724;2023-10-08T06:40:49;15.60;99.90
27540;DHT22;15906;52.046;4.724;2023-10-08T06:43:18;15.60;99.90
27540;DHT22;15906;52.046;4.724;2023-10-08T06:45:48;15.50;99.90
27540;DHT22;15906;52.046;4.724;2023-10-08T06:48:18;15.50;99.90
27540;DHT22;15906;52.046;4.724;2023-10-08T06:50:45;15.40;99.90
27540;DHT22;15906;52.046;4.724;2023-10-08T06:53:11;15.40;99.90
27540;DHT22;15906;52.046;4.724;2023-10-08T06:55:40;15.30;99.90
27540;DHT22;15906;52.046;4.724;2023-10-08T06:58:05;15.40;99.90
27540;DHT22;15906;52.046;4.724;2023-10-08T07:00:34;15.40;99.90
27540;DHT22;15906;52.046;4.724;2023-10-08T07:03:08;15.50;99.90
27540;DHT22;15906;52.046;4.724;2023-10-08T07:05:40;15.40;99.90
27540;DHT22;15906;52.046;4.724;2023-10-08T07:08:07;15.50;99.90
27540;DHT22;15906;52.046;4.724;2023-10-08T07:10:33;15.40;99.90
27540;DHT22;15906;52.046;4.724;2023-10-08T07:13:02;15.30;99.90
27540;DHT22;15906;52.046;4.724;2023-10-08T07:15:33;15.30;99.90
27540;DHT22;15906;52.046;4.724;2023-10-08T07:18:04;15.20;99.90
27540;DHT22;15906;52.046;4.724;2023-10-08T07:20:37;15.30;99.90
27540;DHT22;15906;52.046;4.724;2023-10-08T07:23:05;15.20;99.90
27540;DHT22;15906;52.046;4.724;2023-10-08T07:25:36;15.10;99.90
27540;DHT22;15906;52.046;4.724;2023-10-08T07:28:05;15.00;99.90
27540;DHT22;15906;52.046;4.724;2023-10-08T07:30:37;15.00;99.90
27540;DHT22;15906;52.046;4.724;2023-10-08T07:33:05;14.90;99.90
27540;DHT22;15906;52.046;4.724;2023-10-08T07:35:30;14.90;99.90
27540;DHT22;15906;52.046;4.724;2023-10-08T07:38:03;14.90;99.90
27540;DHT22;15906;52.046;4.724;2023-10-08T07:40:35;14.90;99.90
27540;DHT22;15906;52.046;4.724;2023-10-08T07:43:02;14.90;99.90
27540;DHT22;15906;52.046;4.724;2023-10-08T07:45:33;14.90;99.90
27540;DHT22;15906;52.046;4.724;2023-10-08T07:48:01;14.90;99.90
27540;DHT22;15906;52.046;4.724;2023-10-08T07:50:26;15.00;99.90
27540;DHT22;15906;52.046;4.724;2023-10-08T07:52:54;15.00;99.90
27540;DHT22;15906;52.046;4.724;2023-10-08T07:55:21;15.00;99.90
27540;DHT22;15906;52.046;4.724;2023-10-08T07:57:47;15.00;99.90
27540;DHT22;15906;52.046;4.724;2023-10-08T08:00:14;15.20;99.90
27540;DHT22;15906;52.046;4.724;2023-10-08T08:02:44;15.10;99.90
27540;DHT22;15906;52.046;4.724;2023-10-08T08:05:10;15.10;99.90
27540;DHT22;15906;52.046;4.724;2023-10-08T08:07:35;15.10;99.90
27540;DHT22;15906;52.046;4.724;2023-10-08T08:10:02;15.10;99.90
27540;DHT22;15906;52.046;4.724;2023-10-08T08:12:36;15.20;99.90
27540;DHT22;15906;52.046;4.724;2023-10-08T08:15:03;15.20;99.90
27540;DHT22;15906;52.046;4.724;2023-10-08T08:17:41;15.20;99.90
27540;DHT22;15906;52.046;4.724;2023-10-08T08:20:07;15.10;99.90
27540;DHT22;15906;52.046;4.724;2023-10-08T08:22:43;15.10;99.90
27540;DHT22;15906;52.046;4.724;2023-10-08T08:25:15;15.10;99.90
27540;DHT22;15906;52.046;4.724;2023-10-08T08:27:42;15.10;99.90
27540;DHT22;15906;52.046;4.724;2023-10-08T08:30:11;15.10;99.90
27540;DHT22;15906;52.046;4.724;2023-10-08T08:32:41;15.10;99.90
27540;DHT22;15906;52.046;4.724;2023-10-08T08:35:10;15.10;99.90
27540;DHT22;15906;52.046;4.724;2023-10-08T08:37:37;15.10;99.90
27540;DHT22;15906;52.046;4.724;2023-10-08T08:40:06;15.20;99.90
27540;DHT22;15906;52.046;4.724;2023-10-08T08:42:44;15.20;99.90
27540;DHT22;15906;52.046;4.724;2023-10-08T08:45:13;15.20;99.90
27540;DHT22;15906;52.046;4.724;2023-10-08T08:47:39;15.20;99.90
27540;DHT22;15906;52.046;4.724;2023-10-08T08:50:08;15.10;99.90
27540;DHT22;15906;52.046;4.724;2023-10-08T08:52:38;15.10;99.90
27540;DHT22;15906;52.046;4.724;2023-10-08T08:55:07;15.10;99.90
27540;DHT22;15906;52.046;4.724;2023-10-08T08:57:42;15.20;99.90
27540;DHT22;15906;52.046;4.724;2023-10-08T09:00:11;15.10;99.90
27540;DHT22;15906;52.046;4.724;2023-10-08T09:02:40;15.20;99.90
27540;DHT22;15906;52.046;4.724;2023-10-08T09:05:06;15.20;99.90
27540;DHT22;15906;52.046;4.724;2023-10-08T09:08:04;15.20;99.90
27540;DHT22;15906;52.046;4.724;2023-10-08T09:10:36;15.20;99.90
27540;DHT22;15906;52.046;4.724;2023-10-08T09:13:04;15.20;99.90
27540;DHT22;15906;52.046;4.724;2023-10-08T09:15:30;15.20;99.90
27540;DHT22;15906;52.046;4.724;2023-10-08T09:17:58;15.30;99.90
27540;DHT22;15906;52.046;4.724;2023-10-08T09:20:27;15.20;99.90
27540;DHT22;15906;52.046;4.724;2023-10-08T09:23:13;15.20;99.90
27540;DHT22;15906;52.046;4.724;2023-10-08T09:25:43;15.30;99.90
27540;DHT22;15906;52.046;4.724;2023-10-08T09:28:09;15.30;99.90
27540;DHT22;15906;52.046;4.724;2023-10-08T09:30:38;15.30;99.90
27540;DHT22;15906;52.046;4.724;2023-10-08T09:33:06;15.30;99.90
27540;DHT22;15906;52.046;4.724;2023-10-08T09:35:32;15.30;99.90
27540;DHT22;15906;52.046;4.724;2023-10-08T09:38:01;15.30;99.90
27540;DHT22;15906;52.046;4.724;2023-10-08T09:40:27;15.40;99.90
27540;DHT22;15906;52.046;4.724;2023-10-08T09:42:54;15.40;99.90
27540;DHT22;15906;52.046;4.724;2023-10-08T09:45:21;15.50;99.90
27540;DHT22;15906;52.046;4.724;2023-10-08T09:47:53;15.40;99.90
27540;DHT22;15906;52.046;4.724;2023-10-08T09:50:28;15.40;99.90
27540;DHT22;15906;52.046;4.724;2023-10-08T09:53:01;15.40;99.90
27540;DHT22;15906;52.046;4.724;2023-10-08T09:55:33;15.40;99.90
27540;DHT22;15906;52.046;4.724;2023-10-08T09:57:59;15.50;99.90
27540;DHT22;15906;52.046;4.724;2023-10-08T10:00:26;15.60;99.90
27540;DHT22;15906;52.046;4.724;2023-10-08T10:02:58;15.60;99.90
27540;DHT22;15906;52.046;4.724;2023-10-08T10:05:32;15.70;99.90
27540;DHT22;15906;52.046;4.724;2023-10-08T10:07:58;15.70;99.90
27540;DHT22;15906;52.046;4.724;2023-10-08T10:12:52;15.80;99.90
27540;DHT22;15906;52.046;4.724;2023-10-08T10:15:20;15.80;99.90
27540;DHT22;15906;52.046;4.724;2023-10-08T10:17:47;15.70;99.90
27540;DHT22;15906;52.046;4.724;2023-10-08T10:20:14;15.70;99.90
27540;DHT22;15906;52.046;4.724;2023-10-08T10:22:40;15.70;99.90
27540;DHT22;15906;52.046;4.724;2023-10-08T10:25:08;15.70;99.90
27540;DHT22;15906;52.046;4.724;2023-10-08T10:30:32;15.70;99.90
27540;DHT22;15906;52.046;4.724;2023-10-08T10:33:00;15.70;99.90
27540;DHT22;15906;52.046;4.724;2023-10-08T10:35:26;15.60;99.90
27540;DHT22;15906;52.046;4.724;2023-10-08T10:37:53;15.60;99.90
27540;DHT22;15906;52.046;4.724;2023-10-08T10:40:21;15.70;99.90
27540;DHT22;15906;52.046;4.724;2023-10-08T10:43:06;15.70;99.90
27540;DHT22;15906;52.046;4.724;2023-10-08T10:45:35;15.80;99.90
27540;DHT22;15906;52.046;4.724;2023-10-08T10:48:08;15.70;99.90
27540;DHT22;15906;52.046;4.724;2023-10-08T10:50:48;15.70;99.90
27540;DHT22;15906;52.046;4.724;2023-10-08T10:53:38;15.70;99.90
27540;DHT22;15906;52.046;4.724;2023-10-08T10:56:16;15.80;99.90
27540;DHT22;15906;52.046;4.724;2023-10-08T10:58:58;15.80;99.90
27540;DHT22;15906;52.046;4.724;2023-10-08T11:01:28;15.80;99.90
27540;DHT22;15906;52.046;4.724;2023-10-08T11:04:10;15.90;99.90
27540;DHT22;15906;52.046;4.724;2023-10-08T11:06:42;16.00;99.90
27540;DHT22;15906;52.046;4.724;2023-10-08T11:09:10;16.00;99.90
27540;DHT22;15906;52.046;4.724;2023-10-08T11:11:42;16.00;99.90
27540;DHT22;15906;52.046;4.724;2023-10-08T11:14:11;16.10;99.90
27540;DHT22;15906;52.046;4.724;2023-10-08T11:16:42;16.10;99.90
27540;DHT22;15906;52.046;4.724;2023-10-08T11:19:09;16.20;99.90
27540;DHT22;15906;52.046;4.724;2023-10-08T11:21:51;16.30;99.90
27540;DHT22;15906;52.046;4.724;2023-10-08T11:24:30;16.30;99.90
27540;DHT22;15906;52.046;4.724;2023-10-08T11:26:59;16.30;99.90
27540;DHT22;15906;52.046;4.724;2023-10-08T11:29:49;16.40;99.90
27540;DHT22;15906;52.046;4.724;2023-10-08T11:32:26;16.50;99.90
27540;DHT22;15906;52.046;4.724;2023-10-08T11:35:01;16.50;99.90
27540;DHT22;15906;52.046;4.724;2023-10-08T11:37:45;16.50;99.90
27540;DHT22;15906;52.046;4.724;2023-10-08T11:40:24;16.50;99.90
27540;DHT22;15906;52.046;4.724;2023-10-08T11:43:09;16.60;99.90
27540;DHT22;15906;52.046;4.724;2023-10-08T11:45:44;16.50;99.90
27540;DHT22;15906;52.046;4.724;2023-10-08T11:48:16;16.50;99.90
27540;DHT22;15906;52.046;4.724;2023-10-08T11:50:54;16.50;99.90
27540;DHT22;15906;52.046;4.724;2023-10-08T11:53:23;16.50;99.90
27540;DHT22;15906;52.046;4.724;2023-10-08T11:55:50;16.60;99.90
27540;DHT22;15906;52.046;4.724;2023-10-08T11:58:19;16.60;99.90
27540;DHT22;15906;52.046;4.724;2023-10-08T12:00:46;16.70;99.90
27540;DHT22;15906;52.046;4.724;2023-10-08T12:03:15;16.80;99.90
27540;DHT22;15906;52.046;4.724;2023-10-08T12:05:47;16.80;99.90
27540;DHT22;15906;52.046;4.724;2023-10-08T12:08:18;16.80;99.90
27540;DHT22;15906;52.046;4.724;2023-10-08T12:10:44;16.90;99.90
27540;DHT22;15906;52.046;4.724;2023-10-08T12:13:11;16.90;99.90
27540;DHT22;15906;52.046;4.724;2023-10-08T12:15:37;17.00;99.90
27540;DHT22;15906;52.046;4.724;2023-10-08T12:18:07;17.10;99.90
27540;DHT22;15906;52.046;4.724;2023-10-08T12:20:52;17.20;99.90
27540;DHT22;15906;52.046;4.724;2023-10-08T12:23:19;17.00;99.90
27540;DHT22;15906;52.046;4.724;2023-10-08T12:25:54;17.10;99.90
27540;DHT22;15906;52.046;4.724;2023-10-08T12:28:24;17.10;99.90
27540;DHT22;15906;52.046;4.724;2023-10-08T12:30:53;17.20;99.90
27540;DHT22;15906;52.046;4.724;2023-10-08T12:33:20;17.30;99.90
27540;DHT22;15906;52.046;4.724;2023-10-08T12:35:48;17.40;99.90
27540;DHT22;15906;52.046;4.724;2023-10-08T12:38:14;17.40;99.90
27540;DHT22;15906;52.046;4.724;2023-10-08T12:40:42;17.30;99.90
27540;DHT22;15906;52.046;4.724;2023-10-08T12:43:13;17.30;99.90
27540;DHT22;15906;52.046;4.724;2023-10-08T12:45:39;17.30;99.90
27540;DHT22;15906;52.046;4.724;2023-10-08T12:48:05;17.30;99.90
27540;DHT22;15906;52.046;4.724;2023-10-08T12:50:31;17.20;99.90
27540;DHT22;15906;52.046;4.724;2023-10-08T12:53:11;17.10;99.90
27540;DHT22;15906;52.046;4.724;2023-10-08T12:55:40;17.00;99.90
27540;DHT22;15906;52.046;4.724;2023-10-08T12:58:09;17.10;99.90
27540;DHT22;15906;52.046;4.724;2023-10-08T13:00:38;17.20;99.90
27540;DHT22;15906;52.046;4.724;2023-10-08T13:03:04;17.10;99.90
27540;DHT22;15906;52.046;4.724;2023-10-08T13:05:32;17.30;99.90
27540;DHT22;15906;52.046;4.724;2023-10-08T13:07:59;17.40;99.90
27540;DHT22;15906;52.046;4.724;2023-10-08T13:10:35;17.30;99.90
27540;DHT22;15906;52.046;4.724;2023-10-08T13:13:03;17.30;99.90
27540;DHT22;15906;52.046;4.724;2023-10-08T13:15:29;17.10;99.90
27540;DHT22;15906;52.046;4.724;2023-10-08T13:18:00;17.10;99.90
27540;DHT22;15906;52.046;4.724;2023-10-08T13:20:28;17.10;99.90
27540;DHT22;15906;52.046;4.724;2023-10-08T13:22:59;17.10;99.90
27540;DHT22;15906;52.046;4.724;2023-10-08T13:25:24;17.20;99.90
27540;DHT22;15906;52.046;4.724;2023-10-08T13:27:51;17.20;99.90
27540;DHT22;15906;52.046;4.724;2023-10-08T13:30:17;17.10;99.90
27540;DHT22;15906;52.046;4.724;2023-10-08T13:32:43;17.10;99.90
27540;DHT22;15906;52.046;4.724;2023-10-08T13:35:09;17.20;99.90
27540;DHT22;15906;52.046;4.724;2023-10-08T13:37:36;17.10;99.90
27540;DHT22;15906;52.046;4.724;2023-10-08T13:40:02;17.10;99.90
27540;DHT22;15906;52.046;4.724;2023-10-08T13:42:28;17.20;99.90
27540;DHT22;15906;52.046;4.724;2023-10-08T13:44:55;17.20;99.90
27540;DHT22;15906;52.046;4.724;2023-10-08T13:47:23;17.40;99.90
27540;DHT22;15906;52.046;4.724;2023-10-08T13:49:52;17.40;99.90
27540;DHT22;15906;52.046;4.724;2023-10-08T13:52:19;17.40;99.90
27540;DHT22;15906;52.046;4.724;2023-10-08T13:54:52;17.50;99.90
27540;DHT22;15906;52.046;4.724;2023-10-08T13:57:21;17.50;99.90
27540;DHT22;15906;52.046;4.724;2023-10-08T13:59:47;17.50;99.90
27540;DHT22;15906;52.046;4.724;2023-10-08T14:02:14;17.50;99.90
27540;DHT22;15906;52.046;4.724;2023-10-08T14:04:44;17.50;99.90
27540;DHT22;15906;52.046;4.724;2023-10-08T14:07:10;17.40;99.90
27540;DHT22;15906;52.046;4.724;2023-10-08T14:09:45;17.50;99.90
27540;DHT22;15906;52.046;4.724;2023-10-08T14:12:12;17.50;99.90
27540;DHT22;15906;52.046;4.724;2023-10-08T14:14:39;17.50;99.90
27540;DHT22;15906;52.046;4.724;2023-10-08T14:17:09;17.40;99.90
27540;DHT22;15906;52.046;4.724;2023-10-08T14:19:40;17.50;99.90
27540;DHT22;15906;52.046;4.724;2023-10-08T14:22:14;17.40;99.90
27540;DHT22;15906;52.046;4.724;2023-10-08T14:24:40;17.40;99.90
27540;DHT22;15906;52.046;4.724;2023-10-08T14:27:06;17.50;99.90
27540;DHT22;15906;52.046;4.724;2023-10-08T14:29:39;17.60;99.90
27540;DHT22;15906;52.046;4.724;2023-10-08T14:32:15;17.60;99.90
27540;DHT22;15906;52.046;4.724;2023-10-08T14:34:41;17.60;99.90
27540;DHT22;15906;52.046;4.724;2023-10-08T14:37:12;17.70;99.90
27540;DHT22;15906;52.046;4.724;2023-10-08T14:39:56;17.70;99.90
27540;DHT22;15906;52.046;4.724;2023-10-08T14:42:40;17.70;99.90
27540;DHT22;15906;52.046;4.724;2023-10-08T14:45:29;17.70;99.90
27540;DHT22;15906;52.046;4.724;2023-10-08T14:47:57;17.70;99.90
27540;DHT22;15906;52.046;4.724;2023-10-08T14:50:24;17.70;99.90
27540;DHT22;15906;52.046;4.724;2023-10-08T14:52:53;17.60;99.90
27540;DHT22;15906;52.046;4.724;2023-10-08T14:55:18;17.60;99.90
27540;DHT22;15906;52.046;4.724;2023-10-08T14:57:47;17.50;99.90
27540;DHT22;15906;52.046;4.724;2023-10-08T15:00:12;17.60;99.90
27540;DHT22;15906;52.046;4.724;2023-10-08T15:02:38;17.50;99.90
27540;DHT22;15906;52.046;4.724;2023-10-08T15:05:07;17.50;99.90
27540;DHT22;15906;52.046;4.724;2023-10-08T15:07:35;17.50;99.90
27540;DHT22;15906;52.046;4.724;2023-10-08T15:10:02;17.60;99.90
27540;DHT22;15906;52.046;4.724;2023-10-08T15:12:28;17.60;99.90
27540;DHT22;15906;52.046;4.724;2023-10-08T15:14:54;17.60;99.90
27540;DHT22;15906;52.046;4.724;2023-10-08T15:17:20;17.60;99.90
27540;DHT22;15906;52.046;4.724;2023-10-08T15:19:46;17.60;99.90
27540;DHT22;15906;52.046;4.724;2023-10-08T15:22:12;17.60;99.90
27540;DHT22;15906;52.046;4.724;2023-10-08T15:24:38;17.50;99.90
27540;DHT22;15906;52.046;4.724;2023-10-08T15:27:05;17.40;99.90
27540;DHT22;15906;52.046;4.724;2023-10-08T15:29:31;17.40;99.90
27540;DHT22;15906;52.046;4.724;2023-10-08T15:31:59;17.40;99.90
27540;DHT22;15906;52.046;4.724;2023-10-08T15:34:25;17.40;99.90
27540;DHT22;15906;52.046;4.724;2023-10-08T15:36:52;17.40;99.90
27540;DHT22;15906;52.046;4.724;2023-10-08T15:39:18;17.40;99.90
27540;DHT22;15906;52.046;4.724;2023-10-08T15:41:50;17.30;99.90
27540;DHT22;15906;52.046;4.724;2023-10-08T15:44:16;17.30;99.90
27540;DHT22;15906;52.046;4.724;2023-10-08T15:46:43;17.20;99.90
27540;DHT22;15906;52.046;4.724;2023-10-08T15:49:09;17.10;99.90
27540;DHT22;15906;52.046;4.724;2023-10-08T15:51:35;17.10;99.90
27540;DHT22;15906;52.046;4.724;2023-10-08T15:54:01;17.10;99.90
27540;DHT22;15906;52.046;4.724;2023-10-08T15:56:27;17.00;99.90